Time;durP1;ratioP1;P1;durP2;ratioP2;P2;SDS_P1;SDS_P2;PMS_P1;PMS_P2;Temp;Humidity;BMP_temperature;BMP_pressure;BME280_temperature;BME280_humidity;BME280_pressure;Samples;Min_cycle;Max_cycle;Signal;HPM_P1;HPM_P2
2023/01/27 00:00:37;;;;;;;23.27;8.43;;;;;;;0.26;100.00;98569.22;2572855;28;20062;-84
2023/01/27 00:02:09;;;;;;;17.83;7.75;;;;;;;0.43;100.00;98566.91;2570513;28;20137;-83
2023/01/27 00:03:24;;;;;;;17.25;7.72;;;;;;;0.19;100.00;98573.41;2571410;28;20114;-84
2023/01/27 00:04:40;;;;;;;25.67;7.07;;;;;;;0.04;100.00;98568.88;2571869;28;20113;-86
2023/01/27 00:05:57;;;;;;;21.63;8.38;;;;;;;0.47;100.00;98560.09;2571028;28;20054;-84
2023/01/27 00:07:13;;;;;;;21.80;7.97;;;;;;;0.19;100.00;98567.41;2571364;28;20081;-87
2023/01/27 00:08:28;;;;;;;21.85;7.95;;;;;;;0.24;100.00;98569.22;2570855;28;20065;-85
2023/01/27 00:09:44;;;;;;;18.80;8.40;;;;;;;0.26;100.00;98566.63;2571642;28;20516;-83
2023/01/27 00:14:10;;;;;;;19.92;7.50;;;;;;;0.84;100.00;98563.19;2571940;28;20132;-85
2023/01/27 00:15:26;;;;;;;17.92;8.07;;;;;;;0.59;100.00;98560.25;2571623;28;20137;-84
2023/01/27 00:16:41;;;;;;;15.80;6.97;;;;;;;0.39;100.00;98565.13;2572422;28;20053;-83
2023/01/27 00:17:57;;;;;;;19.67;7.88;;;;;;;0.29;100.00;98564.13;2570579;28;20043;-84
2023/01/27 00:19:12;;;;;;;23.48;8.50;;;;;;;-0.08;100.00;98568.69;2569975;28;20181;-83
2023/01/27 00:25:11;;;;;;;17.27;7.75;;;;;;;0.25;100.00;98563.22;2571368;28;20090;-84
2023/01/27 00:26:27;;;;;;;20.33;7.72;;;;;;;0.31;100.00;98566.72;2572854;28;20071;-84
2023/01/27 00:27:43;;;;;;;23.95;8.80;;;;;;;0.14;100.00;98567.31;2571980;28;20050;-84
2023/01/27 00:28:59;;;;;;;19.63;8.52;;;;;;;0.46;100.00;98566.94;2573367;28;20046;-83
2023/01/27 00:30:14;;;;;;;20.05;8.23;;;;;;;0.22;100.00;98558.03;2572785;28;20529;-85
2023/01/27 00:34:40;;;;;;;21.60;8.50;;;;;;;0.51;100.00;98570.47;2572020;28;20995;-85
2023/01/27 00:36:01;;;;;;;20.42;8.35;;;;;;;0.66;100.00;98562.06;2570458;28;20473;-85
2023/01/27 00:37:17;;;;;;;21.63;9.20;;;;;;;0.78;100.00;98570.81;2572295;28;20055;-83
2023/01/27 00:38:40;;;;;;;23.02;9.32;;;;;;;0.74;100.00;98575.06;2570984;28;20143;-84
2023/01/27 00:39:56;;;;;;;17.65;7.95;;;;;;;0.88;100.00;98564.06;2572997;28;20499;-84
2023/01/27 00:41:18;;;;;;;20.05;8.77;;;;;;;0.72;100.00;98568.16;2571596;28;20077;-84
2023/01/27 00:42:34;;;;;;;20.88;8.52;;;;;;;0.86;100.00;98569.22;2568972;28;20046;-84
2023/01/27 00:43:52;;;;;;;16.58;8.18;;;;;;;0.92;100.00;98566.72;2571003;28;20532;-85
2023/01/27 00:45:51;;;;;;;21.48;8.73;;;;;;;0.85;100.00;98570.06;2572206;28;20089;-84
2023/01/27 00:46:46;;;;;;;18.15;7.15;;;;;;;0.77;100.00;98569.97;2577363;28;20476;-86
2023/01/27 00:48:02;;;;;;;18.65;8.02;;;;;;;0.89;100.00;98570.94;2571165;28;20074;-87
2023/01/27 00:49:18;;;;;;;20.15;8.52;;;;;;;0.95;100.00;98571.91;2571099;28;20058;-84
2023/01/27 00:50:34;;;;;;;19.15;8.35;;;;;;;0.84;100.00;98569.19;2572809;28;20082;-85
2023/01/27 00:51:49;;;;;;;19.10;8.57;;;;;;;0.63;100.00;98564.59;2572592;28;20512;-85
2023/01/27 00:53:05;;;;;;;24.20;9.25;;;;;;;0.69;100.00;98564.69;2570956;28;20056;-84
2023/01/27 00:54:21;;;;;;;24.55;9.10;;;;;;;0.77;100.00;98566.50;2571012;28;20112;-87
2023/01/27 00:55:36;;;;;;;24.40;9.52;;;;;;;0.73;100.00;98568.16;2571881;28;20202;-87
2023/01/27 00:56:52;;;;;;;23.70;9.25;;;;;;;0.89;100.00;98574.41;2569868;28;20582;-87
2023/01/27 00:58:07;;;;;;;23.10;9.02;;;;;;;0.93;100.00;98565.00;2570396;28;20050;-85
2023/01/27 00:59:23;;;;;;;24.42;9.65;;;;;;;0.84;100.00;98573.50;2571634;28;20090;-86
2023/01/27 01:00:39;;;;;;;20.48;8.75;;;;;;;0.45;100.00;98572.94;2572437;28;20674;-86
2023/01/27 01:01:54;;;;;;;23.05;8.82;;;;;;;0.19;100.00;98577.69;2571586;28;20074;-84
2023/01/27 01:03:10;;;;;;;26.00;9.38;;;;;;;0.33;100.00;98576.19;2570700;28;20058;-84
2023/01/27 01:04:25;;;;;;;22.60;9.35;;;;;;;0.28;100.00;98576.13;2570459;28;20097;-84
2023/01/27 01:05:41;;;;;;;26.33;9.85;;;;;;;0.28;100.00;98581.28;2572452;28;20044;-84
2023/01/27 01:06:57;;;;;;;25.40;9.43;;;;;;;0.51;100.00;98582.47;2571709;28;20528;-84
2023/01/27 01:08:12;;;;;;;26.15;10.45;;;;;;;0.40;100.00;98583.16;2570615;28;20058;-85
2023/01/27 01:09:28;;;;;;;29.95;10.55;;;;;;;0.52;100.00;98576.47;2570016;28;20174;-85
2023/01/27 01:10:44;;;;;;;27.77;10.13;;;;;;;0.61;100.00;98579.19;2569830;28;20197;-84
2023/01/27 01:12:00;;;;;;;24.58;9.38;;;;;;;0.48;100.00;98574.69;2571241;28;20054;-85
2023/01/27 01:13:16;;;;;;;26.23;10.52;;;;;;;0.72;100.00;98561.28;2571605;28;20100;-85
2023/01/27 01:14:32;;;;;;;23.00;9.23;;;;;;;0.64;100.00;98565.50;2569755;28;20050;-84
2023/01/27 01:15:47;;;;;;;24.63;10.23;;;;;;;0.13;100.00;98576.75;2569684;28;20454;-85
2023/01/27 01:17:03;;;;;;;22.67;9.15;;;;;;;0.49;100.00;98573.84;2570002;28;20394;-85
2023/01/27 01:18:19;;;;;;;22.42;9.07;;;;;;;0.62;100.00;98568.03;2569528;28;20532;-84
2023/01/27 01:19:34;;;;;;;24.92;9.52;;;;;;;0.54;100.00;98574.78;2570731;28;20152;-90
2023/01/27 01:20:50;;;;;;;21.83;9.02;;;;;;;0.35;100.00;98577.09;2570855;28;20382;-86
2023/01/27 01:22:05;;;;;;;25.75;9.68;;;;;;;-0.04;100.00;98580.75;2569398;28;20055;-85
2023/01/27 01:23:21;;;;;;;21.33;8.68;;;;;;;-0.25;100.00;98586.38;2569920;28;20526;-83
2023/01/27 01:24:37;;;;;;;19.80;9.32;;;;;;;-0.21;100.00;98586.47;2572443;28;20046;-84
2023/01/27 01:25:54;;;;;;;21.85;8.73;;;;;;;0.04;100.00;98586.91;2571451;28;20050;-84
2023/01/27 01:27:09;;;;;;;24.92;8.80;;;;;;;-0.18;100.00;98586.53;2569130;28;20047;-84
2023/01/27 01:28:25;;;;;;;25.95;10.18;;;;;;;-0.19;100.00;98586.50;2570001;28;20751;-84
2023/01/27 01:29:41;;;;;;;26.48;10.38;;;;;;;-0.03;100.00;98579.91;2571476;28;20046;-84
2023/01/27 01:31:03;;;;;;;31.58;10.82;;;;;;;-0.03;100.00;98582.47;2571444;28;20051;-84
2023/01/27 01:32:19;;;;;;;;;;;;;;;0.15;100.00;98581.06;2571935;28;20057;-85
2023/01/27 01:33:36;;;;;;;23.58;8.10;;;;;;;0.04;100.00;98584.34;2571059;28;19993;-84
2023/01/27 01:34:51;;;;;;;23.20;8.95;;;;;;;0.21;100.00;98583.72;2569271;28;20061;-84
2023/01/27 01:36:10;;;;;;;21.17;8.20;;;;;;;0.34;100.00;98580.50;2571348;28;20493;-85
2023/01/27 01:37:25;;;;;;;24.52;9.80;;;;;;;0.59;100.00;98572.28;2569111;28;20127;-83
2023/01/27 01:38:41;;;;;;;26.23;9.82;;;;;;;0.52;100.00;98573.88;2569990;28;20134;-85
2023/01/27 01:39:57;;;;;;;24.35;9.88;;;;;;;0.64;100.00;98575.78;2571390;28;20090;-85
2023/01/27 01:41:18;;;;;;;23.85;8.50;;;;;;;0.58;100.00;98570.53;2572545;28;20112;-85
2023/01/27 01:42:50;;;;;;;24.48;9.15;;;;;;;0.55;100.00;98572.22;2569593;28;20051;-85
2023/01/27 01:44:21;;;;;;;21.10;9.05;;;;;;;0.50;100.00;98578.16;2571789;28;20068;-85
2023/01/27 01:45:57;;;;;;;21.33;8.68;;;;;;;0.28;100.00;98585.56;2570054;28;20129;-85
2023/01/27 01:47:16;;;;;;;21.58;9.02;;;;;;;0.06;100.00;98585.22;2570250;28;20082;-86
2023/01/27 01:48:50;;;;;;;22.60;8.50;;;;;;;0.22;100.00;98582.88;2568854;28;20050;-84
2023/01/27 01:50:06;;;;;;;25.70;9.63;;;;;;;0.22;100.00;98576.03;2569827;28;20054;-84
2023/01/27 01:51:25;;;;;;;21.80;8.95;;;;;;;0.40;100.00;98579.75;2569777;28;20058;-84
2023/01/27 01:52:41;;;;;;;24.25;10.25;;;;;;;0.13;100.00;98583.59;2569457;28;20390;-86
2023/01/27 01:54:02;;;;;;;26.55;9.60;;;;;;;0.08;100.00;98583.53;2568920;28;20081;-85
2023/01/27 01:55:17;;;;;;;24.77;9.07;;;;;;;-0.04;100.00;98575.59;2572357;28;20069;-86
2023/01/27 01:56:43;;;;;;;28.17;9.90;;;;;;;0.15;100.00;98575.94;2571907;28;20485;-84
2023/01/27 01:58:00;;;;;;;25.75;10.43;;;;;;;0.11;100.00;98570.69;2568854;28;20061;-85
2023/01/27 01:59:21;;;;;;;21.73;8.63;;;;;;;0.31;100.00;98575.31;2570915;28;20085;-84
2023/01/27 02:00:36;;;;;;;26.42;9.88;;;;;;;0.35;100.00;98566.78;2569337;28;20117;-84
2023/01/27 02:01:55;;;;;;;22.83;8.70;;;;;;;0.25;100.00;98570.94;2571086;28;20062;-84
2023/01/27 02:03:11;;;;;;;24.02;8.63;;;;;;;0.16;100.00;98565.63;2569255;28;20066;-83
2023/01/27 02:04:33;;;;;;;20.90;7.95;;;;;;;0.04;100.00;98573.16;2569162;28;20592;-84
2023/01/27 02:05:50;;;;;;;21.58;8.10;;;;;;;0.06;100.00;98574.03;2569714;28;20062;-87
2023/01/27 02:07:16;;;;;;;17.63;7.60;;;;;;;0.36;100.00;98570.25;2569400;28;20141;-83
2023/01/27 02:08:36;;;;;;;20.85;8.52;;;;;;;0.20;100.00;98571.69;2570121;28;20053;-83
2023/01/27 02:09:55;;;;;;;19.42;8.30;;;;;;;0.32;100.00;98568.44;2569742;28;20696;-85
2023/01/27 02:11:11;;;;;;;22.48;7.93;;;;;;;0.38;100.00;98569.41;2569336;28;20046;-84
2023/01/27 02:12:26;;;;;;;21.83;8.73;;;;;;;0.49;100.00;98566.13;2568865;28;20082;-85
2023/01/27 02:13:43;;;;;;;24.70;9.18;;;;;;;0.38;100.00;98566.81;2571024;28;20053;-85
2023/01/27 02:14:58;;;;;;;22.73;8.82;;;;;;;0.33;100.00;98572.75;2569382;28;20047;-86
2023/01/27 02:16:14;;;;;;;20.25;8.27;;;;;;;0.44;100.00;98563.47;2569577;28;20500;-89
2023/01/27 02:17:30;;;;;;;20.70;8.85;;;;;;;0.33;100.00;98571.06;2568145;28;20104;-84
2023/01/27 02:18:47;;;;;;;21.10;8.63;;;;;;;0.34;100.00;98575.34;2569446;28;20058;-84
2023/01/27 02:20:07;;;;;;;22.13;9.45;;;;;;;0.31;100.00;98566.72;2569728;28;20073;-84
2023/01/27 02:21:23;;;;;;;26.20;9.18;;;;;;;0.51;100.00;98564.44;2569796;28;20553;-84
2023/01/27 02:23:01;;;;;;;23.05;9.85;;;;;;;0.43;100.00;98563.47;2569224;28;20078;-84
2023/01/27 02:24:18;;;;;;;21.00;8.30;;;;;;;0.17;100.00;98567.38;2569451;28;20156;-84
2023/01/27 02:25:33;;;;;;;24.23;8.60;;;;;;;0.24;100.00;98566.63;2571135;28;20057;-87
2023/01/27 02:26:50;;;;;;;21.60;8.50;;;;;;;0.05;100.00;98565.47;2571461;28;20047;-84
2023/01/27 02:28:07;;;;;;;20.30;8.57;;;;;;;0.04;100.00;98566.31;2570088;28;20095;-84
2023/01/27 02:29:23;;;;;;;20.83;8.48;;;;;;;0.03;100.00;98562.00;2571441;28;20542;-88
2023/01/27 02:30:38;;;;;;;21.42;9.63;;;;;;;0.11;100.00;98559.56;2571632;28;20057;-85
2023/01/27 02:31:54;;;;;;;26.40;9.90;;;;;;;0.37;100.00;98562.53;2570055;28;20043;-85
2023/01/27 02:33:12;;;;;;;22.27;8.95;;;;;;;0.48;100.00;98562.66;2568899;28;20150;-86
2023/01/27 02:34:33;;;;;;;17.55;8.57;;;;;;;0.18;100.00;98555.38;2570852;28;20050;-85
2023/01/27 02:35:58;;;;;;;23.90;9.45;;;;;;;0.40;100.00;98561.72;2569783;28;20408;-83
2023/01/27 02:37:15;;;;;;;25.75;9.50;;;;;;;0.39;100.00;98557.41;2569894;28;20054;-85
2023/01/27 02:38:49;;;;;;;18.90;7.90;;;;;;;0.39;100.00;98563.41;2568853;28;20161;-85
2023/01/27 02:40:05;;;;;;;20.92;8.48;;;;;;;0.46;100.00;98559.22;2570152;28;20591;-84
2023/01/27 02:41:47;;;;;;;28.58;10.05;;;;;;;0.13;100.00;98563.88;2570423;28;20047;-84
2023/01/27 02:43:04;;;;;;;21.30;8.55;;;;;;;0.37;100.00;98562.53;2567084;28;20086;-84
2023/01/27 02:44:20;;;;;;;27.20;10.68;;;;;;;0.47;100.00;98558.34;2569604;28;20050;-88
2023/01/27 02:45:36;;;;;;;23.63;10.68;;;;;;;0.50;100.00;98558.44;2568835;28;20057;-85
2023/01/27 02:46:52;;;;;;;24.10;9.85;;;;;;;0.54;100.00;98559.31;2569546;28;20050;-85
2023/01/27 02:48:07;;;;;;;24.23;9.65;;;;;;;0.39;100.00;98557.41;2570181;28;20058;-84
2023/01/27 02:49:23;;;;;;;21.83;8.65;;;;;;;0.30;100.00;98560.72;2568707;28;20053;-84
2023/01/27 02:50:38;;;;;;;21.15;9.32;;;;;;;0.17;100.00;98557.06;2571454;28;20481;-84
2023/01/27 02:51:54;;;;;;;24.10;9.38;;;;;;;0.42;100.00;98554.88;2569749;28;20512;-84
2023/01/27 02:53:09;;;;;;;23.98;9.15;;;;;;;0.24;100.00;98558.91;2571248;28;20046;-84
2023/01/27 02:54:27;;;;;;;19.35;9.00;;;;;;;0.39;100.00;98549.69;2569123;28;20093;-84
2023/01/27 02:55:42;;;;;;;25.25;9.15;;;;;;;0.24;100.00;98553.75;2568697;28;20134;-85
2023/01/27 02:56:58;;;;;;;24.15;9.98;;;;;;;0.29;100.00;98558.97;2568160;28;20429;-84
2023/01/27 02:58:15;;;;;;;19.17;8.73;;;;;;;0.10;100.00;98563.81;2570904;28;20046;-84
2023/01/27 02:59:30;;;;;;;23.58;10.43;;;;;;;0.15;100.00;98556.19;2569944;28;20054;-83
2023/01/27 03:00:46;;;;;;;21.98;9.30;;;;;;;0.10;100.00;98563.81;2570089;28;20054;-84
2023/01/27 03:02:02;;;;;;;18.77;7.40;;;;;;;0.07;100.00;98561.22;2569152;28;20051;-85
2023/01/27 03:03:18;;;;;;;17.25;8.30;;;;;;;0.04;100.00;98563.75;2570231;28;20061;-84
2023/01/27 03:04:37;;;;;;;20.25;8.80;;;;;;;0.20;100.00;98561.41;2570077;28;20061;-87
2023/01/27 03:05:53;;;;;;;21.65;9.07;;;;;;;0.10;100.00;98562.97;2570550;28;20082;-84
2023/01/27 03:07:08;;;;;;;22.58;8.82;;;;;;;0.04;100.00;98563.75;2570200;28;20059;-84
2023/01/27 03:08:24;;;;;;;19.42;9.20;;;;;;;0.08;100.00;98565.50;2569898;28;20512;-87
2023/01/27 03:09:40;;;;;;;21.40;9.38;;;;;;;0.04;100.00;98562.84;2570092;28;20125;-85
2023/01/27 03:10:56;;;;;;;19.63;8.13;;;;;;;-0.02;100.00;98567.06;2570391;28;20081;-84
2023/01/27 03:12:20;;;;;;;23.58;9.50;;;;;;;-0.01;100.00;98563.66;2571532;28;20061;-84
2023/01/27 03:13:36;;;;;;;18.55;8.82;;;;;;;0.30;100.00;98560.72;2569650;28;20078;-83
2023/01/27 03:18:18;;;;;;;20.13;8.25;;;;;;;-0.18;100.00;98555.66;2568358;28;20058;-84
2023/01/27 03:19:33;;;;;;;19.40;7.70;;;;;;;-0.15;100.00;98557.41;2571315;28;20046;-84
2023/01/27 03:20:49;;;;;;;21.23;8.10;;;;;;;-0.05;100.00;98558.44;2570709;28;20484;-83
2023/01/27 03:22:04;;;;;;;20.38;9.13;;;;;;;0.17;100.00;98553.63;2570438;28;20086;-85
2023/01/27 03:23:20;;;;;;;22.92;8.50;;;;;;;0.23;100.00;98554.59;2570199;28;20046;-86
2023/01/27 03:24:36;;;;;;;19.80;8.52;;;;;;;0.34;100.00;98553.88;2568616;28;20051;-84
2023/01/27 03:25:51;;;;;;;19.55;8.52;;;;;;;0.28;100.00;98550.38;2570834;28;20065;-86
2023/01/27 03:27:07;;;;;;;19.17;7.32;;;;;;;0.26;100.00;98548.59;2568743;28;20126;-84
2023/01/27 03:28:22;;;;;;;16.98;7.43;;;;;;;0.09;100.00;98545.78;2568656;28;20051;-84
2023/01/27 03:29:56;;;;;;;16.05;7.65;;;;;;;-0.04;100.00;98549.88;2572084;28;20050;-84
2023/01/27 03:31:18;;;;;;;16.67;7.82;;;;;;;-0.13;100.00;98552.31;2567807;28;20289;-85
2023/01/27 03:32:34;;;;;;;16.80;7.50;;;;;;;0.20;100.00;98551.94;2570740;28;20554;-84
2023/01/27 03:33:51;;;;;;;18.55;7.90;;;;;;;0.07;100.00;98553.47;2568787;28;20545;-84
2023/01/27 03:35:07;;;;;;;17.20;7.63;;;;;;;-0.04;100.00;98542.13;2570666;28;20497;-84
2023/01/27 03:47:25;;;;;;;21.77;7.72;;;;;;;0.38;100.00;98563.41;2571388;28;20054;-83
2023/01/27 03:48:41;;;;;;;16.52;7.43;;;;;;;0.33;100.00;98557.28;2569878;28;20050;-83
2023/01/27 03:49:56;;;;;;;15.50;6.80;;;;;;;0.39;100.00;98565.97;2569635;28;20074;-83
2023/01/27 03:51:12;;;;;;;15.07;6.95;;;;;;;0.07;100.00;98562.91;2571903;28;20390;-83
2023/01/27 03:52:27;;;;;;;15.80;7.50;;;;;;;0.07;100.00;98568.94;2570605;28;20110;-83
2023/01/27 03:53:43;;;;;;;16.05;7.40;;;;;;;0.27;100.00;98560.63;2568866;28;20608;-85
2023/01/27 03:54:59;;;;;;;18.38;8.35;;;;;;;0.45;100.00;98557.47;2570139;28;20074;-84
2023/01/27 03:56:17;;;;;;;16.67;7.38;;;;;;;0.46;100.00;98560.94;2569566;28;20433;-84
2023/01/27 03:57:32;;;;;;;17.10;7.18;;;;;;;0.52;100.00;98561.00;2568151;28;20057;-85
2023/01/27 03:58:49;;;;;;;11.70;5.93;;;;;;;0.39;100.00;98557.41;2568688;28;20065;-83
2023/01/27 04:00:05;;;;;;;13.95;6.72;;;;;;;0.37;100.00;98562.53;2570340;28;20085;-84
2023/01/27 04:01:22;;;;;;;17.75;7.40;;;;;;;0.52;100.00;98555.84;2568020;28;20612;-83
2023/01/27 04:07:20;;;;;;;12.65;6.10;;;;;;;0.16;100.00;98563.06;2568303;28;20054;-82
2023/01/27 04:08:36;;;;;;;15.43;7.50;;;;;;;0.29;100.00;98556.41;2569826;28;20417;-82
2023/01/27 04:09:51;;;;;;;17.42;7.32;;;;;;;-0.04;100.00;98555.00;2571288;28;20073;-82
2023/01/27 04:12:42;;;;;;;18.58;8.13;;;;;;;-0.08;100.00;98553.22;2571295;28;20074;-84
2023/01/27 04:14:00;;;;;;;19.83;8.45;;;;;;;0.09;100.00;98556.09;2572303;28;20059;-86
2023/01/27 04:15:17;;;;;;;17.90;7.65;;;;;;;0.22;100.00;98549.41;2571792;28;20860;-85
2023/01/27 04:16:35;;;;;;;18.67;7.90;;;;;;;0.40;100.00;98557.41;2572760;28;20061;-84
2023/01/27 04:17:51;;;;;;;17.38;8.18;;;;;;;0.42;100.00;98554.88;2572547;28;20185;-85
2023/01/27 04:19:08;;;;;;;17.48;7.57;;;;;;;0.44;100.00;98560.91;2570773;28;20055;-85
2023/01/27 04:20:24;;;;;;;19.50;8.15;;;;;;;0.11;100.00;98544.97;2573046;28;20113;-83
2023/01/27 04:21:40;;;;;;;19.90;8.30;;;;;;;0.31;100.00;98551.25;2570570;28;20063;-84
2023/01/27 04:22:56;;;;;;;20.10;7.97;;;;;;;0.39;100.00;98547.94;2571638;28;20076;-85
2023/01/27 04:24:16;;;;;;;23.90;8.45;;;;;;;0.49;100.00;98548.09;2572446;28;20055;-84
2023/01/27 04:25:31;;;;;;;21.52;8.57;;;;;;;0.53;100.00;98552.44;2571142;28;20125;-88
2023/01/27 04:27:14;;;;;;;20.92;9.20;;;;;;;0.54;100.00;98546.44;2570914;28;20082;-85
2023/01/27 04:28:30;;;;;;;19.85;8.27;;;;;;;0.52;100.00;98555.84;2571789;28;20424;-84
2023/01/27 04:29:45;;;;;;;16.27;7.53;;;;;;;0.58;100.00;98549.94;2570955;28;20062;-85
2023/01/27 04:31:01;;;;;;;17.10;7.45;;;;;;;0.56;100.00;98555.94;2571368;28;20567;-84
2023/01/27 04:32:17;;;;;;;19.02;7.68;;;;;;;0.17;100.00;98556.22;2571393;28;20069;-88
2023/01/27 04:33:33;;;;;;;18.35;7.75;;;;;;;0.33;100.00;98558.19;2573512;28;20517;-85
2023/01/27 04:34:48;;;;;;;17.55;8.02;;;;;;;0.37;100.00;98562.53;2573149;28;20046;-84
2023/01/27 04:36:04;;;;;;;21.58;7.82;;;;;;;0.52;100.00;98556.75;2571499;28;20043;-84
2023/01/27 04:37:20;;;;;;;19.75;8.63;;;;;;;0.59;100.00;98549.97;2569607;28;20178;-85
2023/01/27 04:38:35;;;;;;;21.90;9.18;;;;;;;0.51;100.00;98562.75;2572267;28;20389;-85
2023/01/27 04:39:51;;;;;;;21.92;8.68;;;;;;;0.54;100.00;98565.34;2571915;28;20136;-84
2023/01/27 04:41:07;;;;;;;18.85;7.13;;;;;;;0.41;100.00;98564.28;2571692;28;20134;-85
2023/01/27 04:42:22;;;;;;;18.60;8.65;;;;;;;0.46;100.00;98566.09;2571482;28;20421;-85
2023/01/27 04:43:38;;;;;;;18.65;8.30;;;;;;;0.60;100.00;98564.56;2569815;28;20047;-85
2023/01/27 04:44:53;;;;;;;21.40;9.25;;;;;;;0.52;100.00;98571.31;2571061;28;20138;-84
2023/01/27 04:46:09;;;;;;;20.08;8.52;;;;;;;0.62;100.00;98570.59;2570230;28;20089;-83
2023/01/27 04:47:25;;;;;;;23.10;9.43;;;;;;;0.52;100.00;98573.88;2571814;28;20085;-89
2023/01/27 04:48:40;;;;;;;20.45;8.63;;;;;;;0.49;100.00;98576.44;2570765;28;20050;-85
2023/01/27 04:49:56;;;;;;;23.48;9.27;;;;;;;0.45;100.00;98572.94;2571510;28;20058;-83
2023/01/27 04:51:12;;;;;;;19.85;8.60;;;;;;;0.48;100.00;98575.53;2571504;28;20058;-83
2023/01/27 04:52:27;;;;;;;24.42;9.23;;;;;;;0.26;100.00;98577.81;2570973;28;20552;-83
2023/01/27 04:53:43;;;;;;;22.73;8.95;;;;;;;0.31;100.00;98577.91;2571003;28;20058;-84
2023/01/27 04:54:58;;;;;;;19.77;8.55;;;;;;;0.38;100.00;98571.97;2564383;28;20051;-83
2023/01/27 04:56:35;;;;;;;20.85;8.07;;;;;;;0.49;100.00;98579.00;2570872;28;20083;-84
2023/01/27 04:57:50;;;;;;;19.17;7.13;;;;;;;0.58;100.00;98573.13;2571842;28;20141;-85
2023/01/27 04:59:10;;;;;;;20.15;8.45;;;;;;;0.53;100.00;98579.06;2571144;28;20473;-84
2023/01/27 05:00:25;;;;;;;20.70;8.05;;;;;;;0.00;100.00;98577.41;2572492;28;20050;-84
2023/01/27 05:01:41;;;;;;;17.45;7.65;;;;;;;0.08;100.00;98588.69;2571276;28;20062;-83
2023/01/27 05:02:57;;;;;;;20.45;6.55;;;;;;;0.17;100.00;98584.53;2572263;28;20078;-84
2023/01/27 05:04:13;;;;;;;20.50;8.23;;;;;;;0.05;100.00;98586.06;2570000;28;20061;-87
2023/01/27 05:05:28;;;;;;;19.05;8.25;;;;;;;0.27;100.00;98591.53;2569291;28;20058;-88
2023/01/27 05:06:44;;;;;;;15.27;7.10;;;;;;;0.26;100.00;98592.38;2569984;28;20055;-83
2023/01/27 05:08:08;;;;;;;20.67;8.57;;;;;;;0.31;100.00;98589.88;2570179;28;20043;-84
2023/01/27 05:09:24;;;;;;;17.25;7.45;;;;;;;0.43;100.00;98595.22;2572022;28;20525;-83
2023/01/27 05:10:43;;;;;;;18.45;7.53;;;;;;;0.45;100.00;98595.28;2570570;28;20051;-84
2023/01/27 05:11:59;;;;;;;17.48;7.63;;;;;;;0.34;100.00;98590.81;2569668;28;20097;-83
2023/01/27 05:13:15;;;;;;;18.25;7.78;;;;;;;0.43;100.00;98586.66;2570758;28;21045;-87
2023/01/27 05:14:30;;;;;;;18.92;7.97;;;;;;;0.50;100.00;98594.50;2573106;28;20067;-84
2023/01/27 05:15:46;;;;;;;14.70;6.40;;;;;;;0.39;100.00;98599.47;2569705;28;20070;-84
2023/01/27 05:17:02;;;;;;;18.23;7.03;;;;;;;0.51;100.00;98595.34;2569720;28;20058;-86
2023/01/27 05:18:18;;;;;;;14.95;6.85;;;;;;;0.47;100.00;98598.72;2569750;28;20055;-86
2023/01/27 05:19:33;;;;;;;15.82;7.35;;;;;;;0.54;100.00;98596.25;2570058;28;20054;-85
2023/01/27 05:20:49;;;;;;;16.77;7.30;;;;;;;0.16;100.00;98604.25;2571510;28;20485;-85
2023/01/27 05:22:05;;;;;;;17.80;6.90;;;;;;;-0.13;100.00;98599.47;2568557;28;20639;-84
2023/01/27 05:23:36;;;;;;;21.67;8.20;;;;;;;0.32;100.00;98596.78;2571138;28;20626;-88
2023/01/27 05:24:51;;;;;;;17.63;6.60;;;;;;;0.00;100.00;98608.28;2571740;28;20057;-85
2023/01/27 05:26:12;;;;;;;23.13;7.82;;;;;;;0.25;100.00;98613.84;2570049;28;20397;-84
2023/01/27 05:27:27;;;;;;;18.85;8.23;;;;;;;0.34;100.00;98606.25;2570030;28;20417;-88
2023/01/27 05:28:45;;;;;;;19.20;7.55;;;;;;;0.01;100.00;98609.16;2570697;28;20105;-85
2023/01/27 05:30:00;;;;;;;20.35;8.68;;;;;;;0.15;100.00;98615.41;2571333;28;20247;-84
2023/01/27 05:31:27;;;;;;;21.35;8.18;;;;;;;0.26;100.00;98616.44;2571919;28;20061;-85
2023/01/27 05:32:43;;;;;;;18.55;7.22;;;;;;;0.10;100.00;98615.31;2569636;28;20379;-85
2023/01/27 05:34:00;;;;;;;17.80;7.00;;;;;;;0.15;100.00;98611.97;2569793;28;20221;-87
2023/01/27 05:35:16;;;;;;;19.67;7.82;;;;;;;-0.02;100.00;98618.56;2570728;28;20054;-85
2023/01/27 05:36:32;;;;;;;19.27;7.43;;;;;;;-0.14;100.00;98618.34;2572617;28;20456;-85
2023/01/27 05:37:47;;;;;;;21.70;7.25;;;;;;;-0.07;100.00;98622.75;2570802;28;20057;-85
2023/01/27 05:39:03;;;;;;;19.58;8.35;;;;;;;0.03;100.00;98622.91;2571559;28;20076;-85
2023/01/27 05:40:18;;;;;;;19.10;7.32;;;;;;;-0.23;100.00;98624.19;2571385;28;20086;-84
2023/01/27 05:41:34;;;;;;;23.73;7.80;;;;;;;0.04;100.00;98625.53;2571473;28;20058;-85
2023/01/27 05:42:51;;;;;;;15.93;6.72;;;;;;;0.21;100.00;98630.09;2570284;28;20085;-84
2023/01/27 05:44:10;;;;;;;18.42;7.65;;;;;;;0.26;100.00;98629.31;2569090;28;20508;-85
2023/01/27 05:45:25;;;;;;;19.30;7.95;;;;;;;0.16;100.00;98632.56;2569853;28;20462;-86
2023/01/27 05:46:41;;;;;;;22.65;8.57;;;;;;;-0.17;100.00;98632.00;2571753;28;20121;-84
2023/01/27 05:47:57;;;;;;;21.08;8.20;;;;;;;-0.12;100.00;98634.66;2569555;28;20054;-89
2023/01/27 05:49:12;;;;;;;17.70;7.18;;;;;;;-0.07;100.00;98635.63;2569477;28;20051;-86
2023/01/27 05:50:28;;;;;;;18.88;7.78;;;;;;;-0.42;100.00;98638.41;2569160;28;21039;-84
2023/01/27 05:51:43;;;;;;;19.90;7.47;;;;;;;-0.19;100.00;98645.69;2569298;28;20868;-86
2023/01/27 05:52:59;;;;;;;20.15;7.68;;;;;;;-0.03;100.00;98649.41;2569520;28;20497;-85
2023/01/27 05:54:15;;;;;;;19.85;8.35;;;;;;;-0.26;100.00;98644.72;2569099;28;20058;-85
2023/01/27 05:55:30;;;;;;;18.52;7.68;;;;;;;0.05;100.00;98644.38;2570406;28;20169;-84
2023/01/27 05:56:46;;;;;;;19.02;7.53;;;;;;;0.17;100.00;98643.75;2569795;28;20877;-85
2023/01/27 05:58:01;;;;;;;20.73;8.02;;;;;;;0.36;100.00;98640.63;2570127;28;20493;-84
2023/01/27 05:59:17;;;;;;;21.73;8.18;;;;;;;0.36;100.00;98643.22;2570637;28;20375;-85
2023/01/27 06:00:33;;;;;;;18.33;7.80;;;;;;;0.15;100.00;98638.56;2570003;28;20054;-84
2023/01/27 06:01:48;;;;;;;20.17;8.48;;;;;;;0.30;100.00;98645.69;2571448;28;20099;-90
2023/01/27 06:03:04;;;;;;;18.38;7.93;;;;;;;0.42;100.00;98647.59;2570625;28;20133;-86
2023/01/27 06:04:19;;;;;;;20.80;7.55;;;;;;;-0.04;100.00;98647.66;2570826;28;20050;-87
2023/01/27 06:05:35;;;;;;;20.85;8.15;;;;;;;0.25;100.00;98637.00;2571658;28;20196;-89
2023/01/27 06:06:50;;;;;;;17.27;7.63;;;;;;;0.30;100.00;98642.25;2568292;28;20143;-86
2023/01/27 06:08:06;;;;;;;20.70;7.40;;;;;;;-0.05;100.00;98641.66;2570980;28;20062;-86
2023/01/27 06:09:22;;;;;;;21.35;8.32;;;;;;;0.14;100.00;98639.41;2569143;28;20105;-85
2023/01/27 06:10:37;;;;;;;19.35;7.60;;;;;;;0.13;100.00;98648.81;2570896;28;20055;-84
2023/01/27 06:11:53;;;;;;;16.88;6.43;;;;;;;0.42;100.00;98647.59;2571796;28;20046;-85
2023/01/27 06:13:09;;;;;;;12.38;5.95;;;;;;;0.11;100.00;98650.50;2571891;28;20105;-84
2023/01/27 06:14:24;;;;;;;15.90;7.88;;;;;;;0.30;100.00;98650.84;2569325;28;20061;-84
2023/01/27 06:15:42;;;;;;;19.65;7.30;;;;;;;0.20;100.00;98644.66;2570625;28;20063;-84
2023/01/27 06:16:59;;;;;;;19.42;7.93;;;;;;;0.30;100.00;98643.13;2570776;28;20046;-84
2023/01/27 06:18:16;;;;;;;17.50;6.97;;;;;;;0.36;100.00;98643.22;2569068;28;20065;-85
2023/01/27 06:19:32;;;;;;;16.60;7.00;;;;;;;0.10;100.00;98642.78;2570938;28;20062;-85
2023/01/27 06:20:48;;;;;;;19.52;8.32;;;;;;;0.20;100.00;98651.53;2570821;28;20860;-84
2023/01/27 06:22:03;;;;;;;17.17;7.22;;;;;;;0.17;100.00;98651.47;2569248;28;20505;-84
2023/01/27 06:23:19;;;;;;;17.98;7.78;;;;;;;0.28;100.00;98652.53;2570691;28;20112;-84
2023/01/27 06:24:35;;;;;;;20.17;8.30;;;;;;;0.37;100.00;98662.13;2569872;28;20054;-85
2023/01/27 06:25:50;;;;;;;17.48;7.57;;;;;;;0.41;100.00;98658.75;2570338;28;20105;-85
2023/01/27 06:27:06;;;;;;;18.92;7.57;;;;;;;0.37;100.00;98656.97;2569879;28;20047;-85
2023/01/27 06:28:22;;;;;;;18.95;7.70;;;;;;;0.37;100.00;98657.81;2569899;28;20046;-84
2023/01/27 06:29:38;;;;;;;22.52;8.88;;;;;;;0.42;100.00;98657.91;2569137;28;20058;-84
2023/01/27 06:30:53;;;;;;;17.98;7.57;;;;;;;0.41;100.00;98654.44;2569016;28;20046;-84